Antioch, Tennessee
Current Conditions -  °F | °C
As of 5:53 AM on Thursday 27 Nov 2014 (Local Time) from KBNA Reporting Station
Overcast Overcast  
Wind Chill: 29°   Ceiling: 1400
Heat Index: 37°   Visibility: 10mi
Dew Point: 32°   Wind: 13mph
Humidity: 82%   Direction: 320°NW
Pressure: 30.27"   Gusts: 22mph
Location:  36.06°N, 86.67°W
Report Text: KBNA 271153Z 32011G19KT 10SM OVC014 03/00 A3027 RMK AO2 SLP253 60000 70006 T00280000 10044 20028 53041
Loading
Personal Weather Stations






























Interactive Weather Map New forecast layout! Learn more

10-Day Weather Forecast

Advertisements
Track Severe Weather on mobile